createdAt,value
2023-08-11T00:00:09.962Z,17.11
2023-08-11T00:00:54.774Z,17.21
2023-08-11T00:01:36.522Z,17.21
2023-08-11T00:02:18.355Z,17.07
2023-08-11T00:03:00.130Z,17.22
2023-08-11T00:03:42.488Z,17.27
2023-08-11T00:04:24.170Z,17.13
2023-08-11T00:05:06.766Z,17.07
2023-08-11T00:05:48.531Z,17.16
2023-08-11T00:06:31.652Z,17.35
2023-08-11T00:07:13.395Z,17.31
2023-08-11T00:07:55.827Z,17.02
2023-08-11T00:08:39.237Z,17.27
2023-08-11T00:09:20.978Z,17.24
2023-08-11T00:10:03.878Z,17.10
2023-08-11T00:10:46.636Z,17.11
2023-08-11T00:11:28.331Z,16.88
2023-08-11T00:12:11.191Z,16.90
2023-08-11T00:12:53.070Z,17.12
2023-08-11T00:13:35.146Z,16.90
2023-08-11T00:14:17.152Z,17.10
2023-08-11T00:14:58.848Z,17.00
2023-08-11T00:15:41.220Z,17.04
2023-08-11T00:16:23.075Z,17.00
2023-08-11T00:17:05.371Z,16.88
2023-08-11T00:17:48.915Z,16.93
2023-08-11T00:18:31.044Z,16.86
2023-08-11T00:19:12.940Z,17.07
2023-08-11T00:19:54.630Z,17.12
2023-08-11T00:20:37.810Z,17.15
2023-08-11T00:21:19.608Z,17.16
2023-08-11T00:22:01.324Z,16.99
2023-08-11T00:22:43.225Z,16.96
2023-08-11T00:23:25.339Z,17.20
2023-08-11T00:24:07.315Z,17.04
2023-08-11T00:24:49.030Z,17.06
2023-08-11T00:25:30.670Z,17.24
2023-08-11T00:26:12.602Z,17.24
2023-08-11T00:26:54.592Z,17.27
2023-08-11T00:27:36.319Z,17.21
2023-08-11T00:28:18.027Z,17.31
2023-08-11T00:28:59.739Z,17.32
2023-08-11T00:29:41.461Z,17.24
2023-08-11T00:30:25.436Z,17.33
2023-08-11T00:31:07.361Z,17.24
2023-08-11T00:31:49.365Z,17.32
2023-08-11T00:32:31.099Z,17.23
2023-08-11T00:33:12.905Z,17.25
2023-08-11T00:33:54.597Z,17.22
2023-08-11T00:34:36.562Z,17.08
2023-08-11T00:35:18.499Z,17.00
2023-08-11T00:36:00.313Z,17.00
2023-08-11T00:36:42.661Z,17.06
2023-08-11T00:37:24.338Z,17.01
2023-08-11T00:38:06.274Z,17.19
2023-08-11T00:38:48.072Z,17.18
2023-08-11T00:39:30.275Z,17.06
2023-08-11T00:40:13.061Z,16.87
2023-08-11T00:40:54.827Z,17.14
2023-08-11T00:41:36.811Z,16.97
2023-08-11T00:42:19.162Z,17.01
2023-08-11T00:43:00.891Z,17.01
2023-08-11T00:43:43.056Z,16.79
2023-08-11T00:44:24.723Z,16.86
2023-08-11T00:45:07.663Z,16.82
2023-08-11T00:45:50.515Z,16.63
2023-08-11T00:46:32.570Z,16.69
2023-08-11T00:47:17.231Z,16.66
2023-08-11T00:47:59.150Z,16.47
2023-08-11T00:48:48.707Z,16.69
2023-08-11T00:49:30.500Z,16.67
2023-08-11T00:50:13.754Z,16.70
2023-08-11T00:50:58.697Z,16.64
2023-08-11T00:51:41.759Z,16.71
2023-08-11T00:52:23.504Z,16.49
2023-08-11T00:53:06.134Z,16.56
2023-08-11T00:53:49.426Z,16.51
2023-08-11T00:54:31.508Z,16.56
2023-08-11T00:55:14.400Z,16.62
2023-08-11T00:55:56.095Z,16.59
2023-08-11T00:56:45.100Z,16.37
2023-08-11T00:57:27.381Z,16.57
2023-08-11T00:58:11.424Z,16.44
2023-08-11T00:58:54.272Z,16.55
2023-08-11T00:59:36.063Z,16.49
2023-08-11T01:00:20.462Z,16.49
2023-08-11T01:01:02.593Z,16.50
2023-08-11T01:01:44.603Z,16.52
2023-08-11T01:02:27.187Z,16.54
2023-08-11T01:03:09.112Z,16.56
2023-08-11T01:03:51.692Z,16.60
2023-08-11T01:04:34.358Z,16.53
2023-08-11T01:05:18.788Z,16.57
2023-08-11T01:06:18.032Z,16.55
2023-08-11T01:07:13.699Z,16.51
2023-08-11T01:08:20.449Z,16.51
2023-08-11T01:09:43.573Z,16.53
2023-08-11T01:10:53.708Z,16.57
2023-08-11T01:11:45.336Z,16.60
2023-08-11T01:12:43.031Z,16.57
2023-08-11T01:13:29.993Z,16.44
2023-08-11T01:14:31.925Z,16.38
2023-08-11T01:15:22.012Z,16.50
2023-08-11T01:16:05.839Z,16.42
2023-08-11T01:16:50.450Z,16.36
2023-08-11T01:17:33.941Z,16.32
2023-08-11T01:18:17.128Z,16.46
2023-08-11T01:18:59.749Z,16.52
2023-08-11T01:19:42.172Z,16.58
2023-08-11T01:20:24.676Z,16.60
2023-08-11T01:21:13.520Z,16.58
2023-08-11T01:22:00.097Z,16.71
2023-08-11T01:22:44.979Z,16.70
2023-08-11T01:23:28.314Z,16.65
2023-08-11T01:24:10.388Z,16.67
2023-08-11T01:24:53.134Z,16.67
2023-08-11T01:25:36.800Z,16.69
2023-08-11T01:26:19.051Z,16.59
2023-08-11T01:27:01.142Z,16.67
2023-08-11T01:27:53.937Z,16.67
2023-08-11T01:28:36.189Z,16.66
2023-08-11T01:29:19.644Z,16.61
2023-08-11T01:30:01.349Z,16.65
2023-08-11T01:30:43.392Z,16.65
2023-08-11T01:31:25.198Z,16.67
2023-08-11T01:32:08.651Z,16.56
2023-08-11T01:32:53.034Z,16.57
2023-08-11T01:33:34.960Z,16.69
2023-08-11T01:34:16.660Z,16.67
2023-08-11T01:34:58.557Z,16.62
2023-08-11T01:35:42.052Z,16.60
2023-08-11T01:36:24.298Z,16.56
2023-08-11T01:37:06.461Z,16.52
2023-08-11T01:37:49.241Z,16.49
2023-08-11T01:38:31.008Z,16.40
2023-08-11T01:39:12.914Z,16.36
2023-08-11T01:39:54.691Z,16.27
2023-08-11T01:40:36.784Z,16.39
2023-08-11T01:41:18.583Z,16.38
2023-08-11T01:42:00.498Z,16.36
2023-08-11T01:42:53.680Z,16.37
2023-08-11T01:43:38.117Z,16.38
2023-08-11T01:44:20.858Z,16.25
2023-08-11T01:45:02.578Z,16.24
2023-08-11T01:45:44.737Z,16.37
2023-08-11T01:46:28.607Z,16.40
2023-08-11T01:47:11.456Z,16.37
2023-08-11T01:47:53.575Z,16.38
2023-08-11T01:48:36.157Z,16.31
2023-08-11T01:49:18.972Z,16.34
2023-08-11T01:50:02.465Z,16.49
2023-08-11T01:50:45.095Z,16.48
2023-08-11T01:51:28.238Z,16.49
2023-08-11T01:52:10.204Z,16.52
2023-08-11T01:52:53.210Z,16.55
2023-08-11T01:53:35.014Z,16.50
2023-08-11T01:54:16.862Z,16.44
2023-08-11T01:54:59.162Z,16.43
2023-08-11T01:55:43.371Z,16.42
2023-08-11T01:56:25.552Z,16.25
2023-08-11T01:57:07.614Z,16.38
2023-08-11T01:57:58.491Z,16.31
2023-08-11T01:58:41.892Z,16.41
2023-08-11T01:59:23.648Z,16.42
2023-08-11T02:00:11.010Z,16.39
2023-08-11T02:00:55.750Z,16.42
2023-08-11T02:01:38.955Z,16.33
2023-08-11T02:02:20.732Z,16.44
2023-08-11T02:03:03.972Z,16.38
2023-08-11T02:03:45.960Z,16.37
2023-08-11T02:04:29.565Z,16.33
2023-08-11T02:05:12.775Z,16.30
2023-08-11T02:05:56.654Z,16.08
2023-08-11T02:06:39.184Z,16.25
2023-08-11T02:07:20.938Z,16.25
2023-08-11T02:08:03.937Z,16.25
2023-08-11T02:08:45.713Z,16.31
2023-08-11T02:09:27.558Z,16.27
2023-08-11T02:10:09.938Z,16.32
2023-08-11T02:10:51.661Z,16.24
2023-08-11T02:11:33.382Z,16.35
2023-08-11T02:12:15.187Z,16.35
2023-08-11T02:12:56.923Z,16.24
2023-08-11T02:13:38.814Z,16.42
2023-08-11T02:14:20.671Z,16.41
2023-08-11T02:15:02.402Z,16.43
2023-08-11T02:15:45.902Z,16.25
2023-08-11T02:16:27.791Z,16.31
2023-08-11T02:17:10.115Z,16.39
2023-08-11T02:17:52.264Z,16.42
2023-08-11T02:18:34.031Z,16.41
2023-08-11T02:19:15.752Z,16.47
2023-08-11T02:19:57.653Z,16.40
2023-08-11T02:20:39.470Z,16.52
2023-08-11T02:21:22.142Z,16.44
2023-08-11T02:22:05.032Z,16.46
2023-08-11T02:22:46.849Z,16.53
2023-08-11T02:23:29.233Z,16.53
2023-08-11T02:24:11.749Z,16.42
2023-08-11T02:24:53.487Z,16.41
2023-08-11T02:25:36.596Z,16.46
2023-08-11T02:26:18.365Z,16.55
2023-08-11T02:27:00.024Z,16.43
2023-08-11T02:27:43.049Z,16.46
2023-08-11T02:28:26.419Z,16.34
2023-08-11T02:29:08.500Z,16.34
2023-08-11T02:29:50.567Z,16.37
2023-08-11T02:30:32.964Z,16.35
2023-08-11T02:31:15.086Z,16.22
2023-08-11T02:31:56.858Z,16.33
2023-08-11T02:32:42.353Z,16.36
2023-08-11T02:33:24.236Z,16.21
2023-08-11T02:34:06.020Z,16.31
2023-08-11T02:34:47.727Z,16.09
2023-08-11T02:35:29.639Z,16.15
2023-08-11T02:36:11.500Z,16.21
2023-08-11T02:36:53.509Z,16.15
2023-08-11T02:37:35.530Z,16.01
2023-08-11T02:38:17.397Z,16.00
2023-08-11T02:38:59.107Z,15.91
2023-08-11T02:39:40.891Z,16.06
2023-08-11T02:40:22.913Z,15.91
2023-08-11T02:41:04.739Z,16.02
2023-08-11T02:41:46.549Z,16.05
2023-08-11T02:42:29.014Z,16.06
2023-08-11T02:43:10.794Z,15.92
2023-08-11T02:43:52.505Z,15.96
2023-08-11T02:44:34.295Z,16.05
2023-08-11T02:45:16.332Z,15.90
2023-08-11T02:45:58.246Z,16.03
2023-08-11T02:46:40.214Z,15.97
2023-08-11T02:47:21.979Z,15.87
2023-08-11T02:48:03.934Z,15.86
2023-08-11T02:48:45.668Z,15.85
2023-08-11T02:49:27.347Z,15.71
2023-08-11T02:50:10.034Z,15.82
2023-08-11T02:50:51.866Z,15.81
2023-08-11T02:51:34.044Z,15.73
2023-08-11T02:52:15.866Z,15.66
2023-08-11T02:52:57.562Z,15.80
2023-08-11T02:53:39.919Z,15.75
2023-08-11T02:54:21.974Z,15.76
2023-08-11T02:55:08.767Z,15.84
2023-08-11T02:55:51.614Z,15.77
2023-08-11T02:56:33.547Z,15.76
2023-08-11T02:57:15.329Z,15.84
2023-08-11T02:57:57.062Z,15.85
2023-08-11T02:58:38.882Z,15.88
2023-08-11T02:59:20.671Z,15.84
2023-08-11T03:00:14.834Z,15.90
2023-08-11T03:00:57.606Z,15.95
2023-08-11T03:01:40.962Z,15.99
2023-08-11T03:02:22.673Z,15.94
2023-08-11T03:03:04.607Z,16.04
2023-08-11T03:03:46.443Z,16.03
2023-08-11T03:04:28.249Z,15.90
2023-08-11T03:05:13.094Z,16.02
2023-08-11T03:05:58.053Z,15.94
2023-08-11T03:06:39.920Z,15.92
2023-08-11T03:07:21.720Z,15.89
2023-08-11T03:08:03.946Z,15.92
2023-08-11T03:08:45.844Z,15.97
2023-08-11T03:09:27.629Z,15.98
2023-08-11T03:10:13.076Z,15.99
2023-08-11T03:10:57.720Z,15.80
2023-08-11T03:11:46.037Z,15.95
2023-08-11T03:12:30.924Z,15.89
2023-08-11T03:13:12.731Z,15.80
2023-08-11T03:13:55.259Z,15.81
2023-08-11T03:14:37.724Z,15.69
2023-08-11T03:15:20.469Z,15.69
2023-08-11T03:16:02.237Z,15.76
2023-08-11T03:16:45.957Z,15.60
2023-08-11T03:17:28.375Z,15.58
2023-08-11T03:18:11.337Z,15.71
2023-08-11T03:18:53.921Z,15.55
2023-08-11T03:19:35.846Z,15.58
2023-08-11T03:20:18.992Z,15.67
2023-08-11T03:21:17.849Z,15.63
2023-08-11T03:22:02.303Z,15.78
2023-08-11T03:22:46.157Z,15.77
2023-08-11T03:23:31.191Z,15.76
2023-08-11T03:24:14.715Z,15.77
2023-08-11T03:24:58.267Z,15.80
2023-08-11T03:25:41.150Z,15.74
2023-08-11T03:26:22.994Z,15.85
2023-08-11T03:27:05.333Z,15.84
2023-08-11T03:27:47.586Z,15.89
2023-08-11T03:28:35.668Z,15.80
2023-08-11T03:29:17.760Z,15.75
2023-08-11T03:30:00.367Z,15.90
2023-08-11T03:30:42.409Z,15.88
2023-08-11T03:31:24.059Z,15.85
2023-08-11T03:32:07.967Z,15.78
2023-08-11T03:32:50.118Z,15.74
2023-08-11T03:33:33.550Z,15.70
2023-08-11T03:34:21.028Z,15.49
2023-08-11T03:35:03.027Z,15.71
2023-08-11T03:35:47.438Z,15.55
2023-08-11T03:36:29.372Z,15.70
2023-08-11T03:37:11.318Z,15.66
2023-08-11T03:37:53.099Z,15.62
2023-08-11T03:38:35.120Z,15.46
2023-08-11T03:39:17.542Z,15.46
2023-08-11T03:39:59.555Z,15.38
2023-08-11T03:40:42.139Z,15.36
2023-08-11T03:41:25.031Z,15.05
2023-08-11T03:42:07.354Z,15.21
2023-08-11T03:42:49.355Z,15.24
2023-08-11T03:43:31.067Z,15.15
2023-08-11T03:44:12.874Z,15.07
2023-08-11T03:44:55.075Z,15.17
2023-08-11T03:45:37.314Z,15.19
2023-08-11T03:46:24.280Z,15.11
2023-08-11T03:47:06.679Z,15.17
2023-08-11T03:47:49.070Z,15.20
2023-08-11T03:48:37.139Z,14.99
2023-08-11T03:49:19.510Z,15.12
2023-08-11T03:50:01.202Z,15.03
2023-08-11T03:50:42.988Z,15.03
2023-08-11T03:51:24.836Z,15.03
2023-08-11T03:52:07.304Z,15.07
2023-08-11T03:52:49.619Z,15.07
2023-08-11T03:53:32.087Z,15.13
2023-08-11T03:54:14.162Z,15.17
2023-08-11T03:54:55.866Z,15.18
2023-08-11T03:55:37.989Z,15.22
2023-08-11T03:56:20.813Z,15.19
2023-08-11T03:57:02.968Z,15.18
2023-08-11T03:57:44.822Z,15.27
2023-08-11T03:58:28.862Z,15.34
2023-08-11T03:59:12.246Z,15.36
2023-08-11T03:59:54.087Z,15.25
2023-08-11T04:00:37.873Z,15.36
2023-08-11T04:01:26.965Z,15.35
2023-08-11T04:02:09.452Z,15.32
2023-08-11T04:02:51.564Z,15.50
2023-08-11T04:03:34.452Z,15.40
2023-08-11T04:04:16.190Z,15.52
2023-08-11T04:04:58.051Z,15.52
2023-08-11T04:05:39.783Z,15.48
2023-08-11T04:06:21.644Z,15.49
2023-08-11T04:07:06.127Z,15.52
2023-08-11T04:07:47.960Z,15.51
2023-08-11T04:08:29.705Z,15.53
2023-08-11T04:09:11.669Z,15.41
2023-08-11T04:09:54.586Z,15.56
2023-08-11T04:10:38.016Z,15.44
2023-08-11T04:11:19.732Z,15.51
2023-08-11T04:12:01.460Z,15.55
2023-08-11T04:12:43.234Z,15.58
2023-08-11T04:13:25.189Z,15.51
2023-08-11T04:14:06.977Z,15.55
2023-08-11T04:14:48.695Z,15.51
2023-08-11T04:15:32.381Z,15.41
2023-08-11T04:16:14.188Z,15.40
2023-08-11T04:16:55.922Z,15.59
2023-08-11T04:17:38.090Z,15.59
2023-08-11T04:18:19.883Z,15.57
2023-08-11T04:19:01.607Z,15.56
2023-08-11T04:19:44.446Z,15.62
2023-08-11T04:20:26.170Z,15.23
2023-08-11T04:21:07.913Z,15.51
2023-08-11T04:21:49.584Z,15.59
2023-08-11T04:22:38.650Z,15.45
2023-08-11T04:23:21.344Z,15.58
2023-08-11T04:24:03.619Z,15.59
2023-08-11T04:24:46.400Z,15.60
2023-08-11T04:25:28.162Z,15.61
2023-08-11T04:26:11.550Z,15.62
2023-08-11T04:26:53.399Z,15.62
2023-08-11T04:27:36.536Z,15.60
2023-08-11T04:28:19.269Z,15.50
2023-08-11T04:29:02.654Z,15.63
2023-08-11T04:29:44.483Z,15.54
2023-08-11T04:30:26.668Z,15.60
2023-08-11T04:31:08.690Z,15.61
2023-08-11T04:31:51.138Z,15.48
2023-08-11T04:32:33.982Z,15.60
2023-08-11T04:33:16.512Z,15.57
2023-08-11T04:33:58.997Z,15.66
2023-08-11T04:34:40.924Z,15.66
2023-08-11T04:35:22.605Z,15.59
2023-08-11T04:36:05.468Z,15.65
2023-08-11T04:36:47.436Z,15.69
2023-08-11T04:37:29.193Z,15.76
2023-08-11T04:38:10.957Z,15.60
2023-08-11T04:38:53.995Z,15.77
2023-08-11T04:39:37.983Z,15.79
2023-08-11T04:40:22.387Z,15.76
2023-08-11T04:41:06.902Z,15.74
2023-08-11T04:41:48.592Z,15.65
2023-08-11T04:42:30.284Z,15.70
2023-08-11T04:43:13.372Z,15.84
2023-08-11T04:43:57.745Z,15.73
2023-08-11T04:44:40.491Z,15.79
2023-08-11T04:45:23.117Z,15.87
2023-08-11T04:46:05.271Z,15.79
2023-08-11T04:46:48.041Z,15.82
2023-08-11T04:47:30.011Z,15.71
2023-08-11T04:48:12.270Z,15.74
2023-08-11T04:48:58.344Z,15.86
2023-08-11T04:49:40.157Z,15.77
2023-08-11T04:50:22.959Z,15.89
2023-08-11T04:51:09.461Z,15.82
2023-08-11T04:51:52.696Z,15.85
2023-08-11T04:52:34.968Z,15.80
2023-08-11T04:53:18.536Z,15.87
2023-08-11T04:54:04.270Z,15.86
2023-08-11T04:54:46.481Z,15.79
2023-08-11T04:55:28.624Z,15.84
2023-08-11T04:56:10.337Z,15.89
2023-08-11T04:56:52.003Z,15.94
2023-08-11T04:57:34.684Z,15.89
2023-08-11T04:58:19.754Z,16.02
2023-08-11T04:59:01.624Z,16.03
2023-08-11T04:59:43.380Z,15.98
2023-08-11T05:00:25.147Z,16.06
2023-08-11T05:01:08.505Z,16.07
2023-08-11T05:01:50.259Z,16.04
2023-08-11T05:02:32.039Z,16.03
2023-08-11T05:03:13.916Z,16.13
2023-08-11T05:03:55.899Z,16.14
2023-08-11T05:04:37.846Z,16.11
2023-08-11T05:05:20.764Z,16.11
2023-08-11T05:06:04.465Z,15.93
2023-08-11T05:06:47.653Z,15.99
2023-08-11T05:07:29.553Z,16.04
2023-08-11T05:08:11.312Z,16.16
2023-08-11T05:08:53.025Z,16.17
2023-08-11T05:09:38.762Z,16.07
2023-08-11T05:10:20.555Z,16.18
2023-08-11T05:11:02.311Z,16.18
2023-08-11T05:11:44.211Z,16.24
2023-08-11T05:12:25.956Z,16.15
2023-08-11T05:13:07.734Z,16.27
2023-08-11T05:13:49.534Z,16.11
2023-08-11T05:14:31.808Z,16.13
2023-08-11T05:15:13.533Z,16.29
2023-08-11T05:15:55.276Z,16.30
2023-08-11T05:16:37.095Z,16.21
2023-08-11T05:17:18.849Z,16.16
2023-08-11T05:18:00.687Z,16.32
2023-08-11T05:18:44.231Z,16.33
2023-08-11T05:19:26.665Z,16.37
2023-08-11T05:20:09.087Z,16.37
2023-08-11T05:20:50.851Z,16.27
2023-08-11T05:21:32.536Z,16.28
2023-08-11T05:22:14.233Z,16.43
2023-08-11T05:22:56.099Z,16.47
2023-08-11T05:23:38.158Z,16.52
2023-08-11T05:24:19.909Z,16.53
2023-08-11T05:25:05.202Z,16.45
2023-08-11T05:25:46.983Z,16.61
2023-08-11T05:26:29.091Z,16.65
2023-08-11T05:27:10.918Z,16.60
2023-08-11T05:27:52.647Z,16.67
2023-08-11T05:28:34.457Z,16.57
2023-08-11T05:29:16.554Z,16.64
2023-08-11T05:29:58.425Z,16.69
2023-08-11T05:30:40.547Z,16.77
2023-08-11T05:31:22.472Z,16.76
2023-08-11T05:32:04.577Z,16.78
2023-08-11T05:32:46.387Z,16.76
2023-08-11T05:33:28.368Z,16.64
2023-08-11T05:34:10.707Z,16.71
2023-08-11T05:34:53.896Z,16.74
2023-08-11T05:35:35.717Z,16.78
2023-08-11T05:36:17.646Z,16.76
2023-08-11T05:36:59.336Z,16.76
2023-08-11T05:37:42.316Z,16.68
2023-08-11T05:38:24.157Z,16.83
2023-08-11T05:39:07.905Z,16.77
2023-08-11T05:39:49.675Z,16.88
2023-08-11T05:40:31.469Z,16.94
2023-08-11T05:41:13.203Z,16.85
2023-08-11T05:41:54.900Z,16.98
2023-08-11T05:42:36.741Z,16.91
2023-08-11T05:43:18.857Z,17.06
2023-08-11T05:44:00.810Z,16.98
2023-08-11T05:44:42.555Z,17.14
2023-08-11T05:45:24.459Z,17.17
2023-08-11T05:46:09.058Z,17.18
2023-08-11T05:46:50.815Z,17.18
2023-08-11T05:47:32.569Z,17.24
2023-08-11T05:48:14.504Z,17.14
2023-08-11T05:48:56.172Z,17.31
2023-08-11T05:49:37.837Z,17.32
2023-08-11T05:50:19.644Z,17.39
2023-08-11T05:51:01.473Z,17.29
2023-08-11T05:51:43.248Z,17.44
2023-08-11T05:52:24.946Z,17.47
2023-08-11T05:53:06.694Z,17.49
2023-08-11T05:53:48.480Z,17.44
2023-08-11T05:54:30.147Z,17.52
2023-08-11T05:55:12.124Z,17.58
2023-08-11T05:55:53.894Z,17.57
2023-08-11T05:56:35.634Z,17.54
2023-08-11T05:57:17.503Z,17.68
2023-08-11T05:57:59.298Z,17.72
2023-08-11T05:58:40.974Z,17.74
2023-08-11T05:59:22.992Z,17.65
2023-08-11T06:00:05.930Z,17.76
2023-08-11T06:00:54.930Z,17.77
2023-08-11T06:01:36.796Z,17.56
2023-08-11T06:02:18.637Z,17.74
2023-08-11T06:03:00.422Z,17.83
2023-08-11T06:03:42.313Z,17.75
2023-08-11T06:04:24.053Z,17.89
2023-08-11T06:05:06.386Z,17.88
2023-08-11T06:05:48.198Z,17.97
2023-08-11T06:06:29.971Z,17.97
2023-08-11T06:07:12.215Z,17.86
2023-08-11T06:08:05.277Z,18.04
2023-08-11T06:08:48.633Z,18.01
2023-08-11T06:09:30.344Z,18.03
2023-08-11T06:10:12.041Z,18.19
2023-08-11T06:10:53.793Z,18.20
2023-08-11T06:11:36.166Z,18.32
2023-08-11T06:12:18.051Z,18.29
2023-08-11T06:12:59.792Z,18.30
2023-08-11T06:13:41.467Z,18.36
2023-08-11T06:14:23.144Z,18.42
2023-08-11T06:15:05.853Z,18.47
2023-08-11T06:15:47.696Z,18.45
2023-08-11T06:16:29.691Z,18.49
2023-08-11T06:17:13.005Z,18.41
2023-08-11T06:17:55.238Z,18.41
2023-08-11T06:18:37.200Z,18.59
2023-08-11T06:19:18.879Z,18.55
2023-08-11T06:20:02.315Z,18.49
2023-08-11T06:20:44.941Z,18.67
2023-08-11T06:21:26.737Z,18.66
2023-08-11T06:22:08.622Z,18.73
2023-08-11T06:22:50.484Z,18.76
2023-08-11T06:23:35.132Z,18.82
2023-08-11T06:24:17.031Z,18.79
2023-08-11T06:24:58.844Z,18.82
2023-08-11T06:25:40.644Z,18.88
2023-08-11T06:26:22.333Z,18.98
2023-08-11T06:27:04.421Z,19.04
2023-08-11T06:27:46.179Z,19.22
2023-08-11T06:28:27.957Z,19.18
2023-08-11T06:29:09.843Z,19.41
2023-08-11T06:29:51.535Z,19.43
2023-08-11T06:30:33.259Z,19.56
2023-08-11T06:31:15.580Z,19.63
2023-08-11T06:31:57.308Z,19.63
2023-08-11T06:32:39.317Z,19.79
2023-08-11T06:33:21.286Z,19.81
2023-08-11T06:34:03.116Z,19.84
2023-08-11T06:34:44.953Z,19.78
2023-08-11T06:35:26.932Z,19.98
2023-08-11T06:36:08.582Z,19.97
2023-08-11T06:36:50.497Z,19.96
2023-08-11T06:37:32.341Z,20.03
2023-08-11T06:38:14.108Z,20.17
2023-08-11T06:38:55.848Z,20.26
2023-08-11T06:39:37.859Z,20.32
2023-08-11T06:40:19.614Z,20.40
2023-08-11T06:41:01.432Z,20.33
2023-08-11T06:41:43.344Z,20.47
2023-08-11T06:42:26.068Z,20.49
2023-08-11T06:43:17.940Z,20.52
2023-08-11T06:43:59.815Z,20.68
2023-08-11T06:44:41.648Z,20.72
2023-08-11T06:45:23.388Z,20.64
2023-08-11T06:46:05.382Z,20.85
2023-08-11T06:46:47.275Z,20.88
2023-08-11T06:47:30.362Z,20.89
2023-08-11T06:48:13.127Z,20.97
2023-08-11T06:48:54.845Z,20.98
2023-08-11T06:49:36.553Z,21.01
2023-08-11T06:50:18.767Z,21.05
2023-08-11T06:51:00.473Z,20.97
2023-08-11T06:51:42.245Z,21.12
2023-08-11T06:52:24.468Z,21.22
2023-08-11T06:53:06.319Z,21.30
2023-08-11T06:53:48.210Z,21.30
2023-08-11T06:54:30.027Z,21.43
2023-08-11T06:55:11.976Z,21.38
2023-08-11T06:55:53.834Z,21.57
2023-08-11T06:56:35.581Z,21.58
2023-08-11T06:57:19.311Z,21.59
2023-08-11T06:58:01.103Z,21.64
2023-08-11T06:58:42.867Z,21.67
2023-08-11T06:59:24.614Z,21.64
2023-08-11T07:00:08.516Z,21.77
2023-08-11T07:00:50.292Z,21.88
2023-08-11T07:01:32.164Z,21.95
2023-08-11T07:02:14.295Z,22.03
2023-08-11T07:02:56.245Z,21.92
2023-08-11T07:03:38.056Z,21.96
2023-08-11T07:04:21.829Z,22.04
2023-08-11T07:05:04.159Z,22.01
2023-08-11T07:05:46.109Z,21.88
2023-08-11T07:06:27.864Z,21.97
2023-08-11T07:07:09.885Z,22.00
2023-08-11T07:07:51.684Z,21.86
2023-08-11T07:08:33.501Z,21.99
2023-08-11T07:09:15.320Z,21.99
2023-08-11T07:09:57.016Z,21.92
2023-08-11T07:10:38.925Z,22.01
2023-08-11T07:11:20.705Z,22.13
2023-08-11T07:12:02.468Z,22.22
2023-08-11T07:12:44.204Z,22.28
2023-08-11T07:13:26.024Z,22.42
2023-08-11T07:14:07.908Z,22.49
2023-08-11T07:14:49.821Z,22.63
2023-08-11T07:15:31.612Z,22.74
2023-08-11T07:16:13.269Z,22.83
2023-08-11T07:16:55.074Z,22.92
2023-08-11T07:17:37.678Z,23.03
2023-08-11T07:18:19.414Z,23.05
2023-08-11T07:19:01.215Z,23.05
2023-08-11T07:19:43.002Z,23.23
2023-08-11T07:20:24.868Z,23.19
2023-08-11T07:21:07.104Z,23.23
2023-08-11T07:21:49.310Z,23.37
2023-08-11T07:22:31.110Z,23.43
2023-08-11T07:23:13.389Z,23.53
2023-08-11T07:23:55.650Z,23.64
2023-08-11T07:24:37.400Z,23.66
2023-08-11T07:25:19.294Z,23.68
2023-08-11T07:26:01.219Z,23.60
2023-08-11T07:26:42.976Z,23.74
2023-08-11T07:27:24.809Z,23.64
2023-08-11T07:28:06.818Z,23.52
2023-08-11T07:28:48.584Z,23.56
2023-08-11T07:29:30.397Z,23.50
2023-08-11T07:30:12.613Z,23.51
2023-08-11T07:30:54.432Z,23.47
2023-08-11T07:31:36.157Z,23.58
2023-08-11T07:32:18.045Z,23.53
2023-08-11T07:33:01.911Z,23.68
2023-08-11T07:33:44.372Z,23.71
2023-08-11T07:34:26.197Z,23.91
2023-08-11T07:35:08.454Z,24.04
2023-08-11T07:35:50.359Z,24.16
2023-08-11T07:36:32.279Z,24.21
2023-08-11T07:37:14.034Z,24.38
2023-08-11T07:37:56.310Z,24.37
2023-08-11T07:38:38.188Z,24.40
2023-08-11T07:39:23.480Z,24.47
2023-08-11T07:40:07.607Z,24.45
2023-08-11T07:40:49.448Z,24.41
2023-08-11T07:41:31.171Z,24.45
2023-08-11T07:42:13.095Z,24.44
2023-08-11T07:42:54.905Z,24.39
2023-08-11T07:43:36.618Z,24.31
2023-08-11T07:44:18.697Z,24.40
2023-08-11T07:45:00.626Z,24.53
2023-08-11T07:45:42.546Z,24.51
2023-08-11T07:46:24.364Z,24.60
2023-08-11T07:47:06.342Z,24.67
2023-08-11T07:47:48.212Z,24.63
2023-08-11T07:48:30.017Z,24.82
2023-08-11T07:49:13.630Z,24.91
2023-08-11T07:49:57.897Z,25.08
2023-08-11T07:50:41.305Z,25.20
2023-08-11T07:51:23.138Z,25.28
2023-08-11T07:52:05.096Z,25.27
2023-08-11T07:52:46.941Z,25.53
2023-08-11T07:53:28.795Z,25.62
2023-08-11T07:54:11.323Z,25.70
2023-08-11T07:54:53.224Z,25.65
2023-08-11T07:55:35.150Z,25.84
2023-08-11T07:56:16.907Z,25.82
2023-08-11T07:56:58.657Z,25.76
2023-08-11T07:57:40.422Z,25.79
2023-08-11T07:58:22.965Z,25.85
2023-08-11T07:59:05.003Z,25.88
2023-08-11T07:59:47.177Z,25.84
2023-08-11T08:00:29.008Z,25.88
2023-08-11T08:01:12.167Z,26.02
2023-08-11T08:01:54.112Z,26.11
2023-08-11T08:02:35.986Z,26.10
2023-08-11T08:03:18.963Z,26.18
2023-08-11T08:04:00.853Z,26.35
2023-08-11T08:04:43.474Z,26.41
2023-08-11T08:05:25.198Z,26.49
2023-08-11T08:06:07.000Z,26.51
2023-08-11T08:06:48.837Z,26.48
2023-08-11T08:07:30.516Z,26.55
2023-08-11T08:08:12.984Z,26.47
2023-08-11T08:08:54.754Z,26.50
2023-08-11T08:09:37.008Z,26.65
2023-08-11T08:10:21.352Z,26.76
2023-08-11T08:11:03.758Z,26.89
2023-08-11T08:11:46.597Z,26.96
2023-08-11T08:12:28.405Z,27.05
2023-08-11T08:13:10.104Z,27.17
2023-08-11T08:13:51.859Z,27.06
2023-08-11T08:14:33.626Z,27.36
2023-08-11T08:15:17.823Z,27.44
2023-08-11T08:15:59.521Z,27.51
2023-08-11T08:16:48.226Z,27.62
2023-08-11T08:17:30.136Z,27.63
2023-08-11T08:18:11.897Z,27.73
2023-08-11T08:18:53.722Z,27.85
2023-08-11T08:19:35.465Z,27.91
2023-08-11T08:20:17.601Z,27.88
2023-08-11T08:20:59.407Z,28.04
2023-08-11T08:21:42.444Z,28.06
2023-08-11T08:22:24.522Z,28.02
2023-08-11T08:23:06.400Z,28.14
2023-08-11T08:23:48.451Z,28.01
2023-08-11T08:24:30.306Z,28.20
2023-08-11T08:25:12.172Z,28.21
2023-08-11T08:25:53.936Z,28.18
2023-08-11T08:26:37.377Z,28.30
2023-08-11T08:27:25.300Z,28.34
2023-08-11T08:28:07.347Z,28.38
2023-08-11T08:28:49.271Z,28.28
2023-08-11T08:29:31.073Z,28.43
2023-08-11T08:30:13.051Z,28.45
2023-08-11T08:30:55.023Z,28.50
2023-08-11T08:31:37.112Z,28.54
2023-08-11T08:32:19.030Z,28.64
2023-08-11T08:33:00.852Z,28.72
2023-08-11T08:33:45.672Z,28.79
2023-08-11T08:34:28.287Z,28.85
2023-08-11T08:35:11.229Z,28.82
2023-08-11T08:35:52.969Z,28.87
2023-08-11T08:36:34.724Z,29.01
2023-08-11T08:37:22.682Z,28.99
2023-08-11T08:38:05.455Z,29.07
2023-08-11T08:38:47.706Z,29.11
2023-08-11T08:39:29.433Z,29.11
2023-08-11T08:40:11.803Z,29.08
2023-08-11T08:40:53.574Z,29.08
2023-08-11T08:41:39.380Z,29.06
2023-08-11T08:42:22.567Z,29.08
2023-08-11T08:43:07.644Z,29.05
2023-08-11T08:43:50.350Z,29.13
2023-08-11T08:44:33.248Z,29.14
2023-08-11T08:45:15.382Z,29.17
2023-08-11T08:46:01.222Z,29.12
2023-08-11T08:46:44.101Z,29.26
2023-08-11T08:47:27.502Z,29.34
2023-08-11T08:48:17.355Z,29.43
2023-08-11T08:49:19.994Z,29.38
2023-08-11T08:50:04.738Z,29.43
2023-08-11T08:50:46.979Z,29.38
2023-08-11T08:51:30.593Z,29.50
2023-08-11T08:52:13.847Z,29.40
2023-08-11T08:52:56.204Z,29.32
2023-08-11T08:53:38.106Z,29.29
2023-08-11T08:54:20.394Z,29.42
2023-08-11T08:55:02.373Z,29.29
2023-08-11T08:55:44.722Z,29.48
2023-08-11T08:56:27.675Z,29.52
2023-08-11T08:57:12.877Z,29.63
2023-08-11T08:57:56.971Z,29.58
2023-08-11T08:58:38.829Z,29.84
2023-08-11T08:59:21.275Z,29.73
2023-08-11T09:00:03.510Z,29.62
2023-08-11T09:00:47.145Z,29.49
2023-08-11T09:01:30.108Z,29.39
2023-08-11T09:02:14.351Z,29.31
2023-08-11T09:02:57.990Z,29.29
2023-08-11T09:03:41.347Z,29.30
2023-08-11T09:04:23.846Z,29.34
2023-08-11T09:05:07.445Z,29.37
2023-08-11T09:05:49.704Z,29.35
2023-08-11T09:06:31.700Z,29.31
2023-08-11T09:07:13.972Z,29.24
2023-08-11T09:07:55.731Z,29.18
2023-08-11T09:08:40.763Z,29.14
2023-08-11T09:09:24.594Z,29.21
2023-08-11T09:10:07.471Z,29.17
2023-08-11T09:10:49.362Z,29.40
2023-08-11T09:11:31.181Z,29.40